sensor_id;sensor_type;location;lat;lon;timestamp;P1;durP1;ratioP1;P2;durP2;ratioP2
34064;SDS011;20339;49.754;20.158;2022-09-02T00:00:28;3.80;;;1.30;;
34064;SDS011;20339;49.754;20.158;2022-09-02T00:03:03;1.90;;;1.00;;
34064;SDS011;20339;49.754;20.158;2022-09-02T00:05:34;3.60;;;1.30;;
34064;SDS011;20339;49.754;20.158;2022-09-02T00:08:05;2.10;;;1.30;;
34064;SDS011;20339;49.754;20.158;2022-09-02T00:10:39;1.80;;;1.30;;
34064;SDS011;20339;49.754;20.158;2022-09-02T00:13:12;1.60;;;1.10;;
34064;SDS011;20339;49.754;20.158;2022-09-02T00:15:45;3.50;;;1.20;;
34064;SDS011;20339;49.754;20.158;2022-09-02T00:18:17;3.20;;;1.20;;
34064;SDS011;20339;49.754;20.158;2022-09-02T00:20:48;2.20;;;1.10;;
34064;SDS011;20339;49.754;20.158;2022-09-02T00:23:20;1.70;;;1.00;;
34064;SDS011;20339;49.754;20.158;2022-09-02T00:25:51;1.80;;;1.10;;
34064;SDS011;20339;49.754;20.158;2022-09-02T00:28:23;2.40;;;1.40;;
34064;SDS011;20339;49.754;20.158;2022-09-02T00:30:54;2.40;;;1.20;;
34064;SDS011;20339;49.754;20.158;2022-09-02T00:33:25;1.80;;;1.30;;
34064;SDS011;20339;49.754;20.158;2022-09-02T00:35:59;2.60;;;1.10;;
34064;SDS011;20339;49.754;20.158;2022-09-02T00:38:33;2.90;;;1.10;;
34064;SDS011;20339;49.754;20.158;2022-09-02T00:41:07;1.80;;;1.10;;
34064;SDS011;20339;49.754;20.158;2022-09-02T00:43:40;2.70;;;1.30;;
34064;SDS011;20339;49.754;20.158;2022-09-02T00:46:14;1.90;;;1.10;;
34064;SDS011;20339;49.754;20.158;2022-09-02T00:48:52;3.90;;;1.20;;
34064;SDS011;20339;49.754;20.158;2022-09-02T00:51:31;2.30;;;1.10;;
34064;SDS011;20339;49.754;20.158;2022-09-02T00:54:05;1.70;;;0.80;;
34064;SDS011;20339;49.754;20.158;2022-09-02T00:56:38;3.10;;;1.20;;
34064;SDS011;20339;49.754;20.158;2022-09-02T00:59:14;1.90;;;1.20;;
34064;SDS011;20339;49.754;20.158;2022-09-02T01:01:50;2.70;;;1.20;;
34064;SDS011;20339;49.754;20.158;2022-09-02T01:04:21;2.80;;;0.90;;
34064;SDS011;20339;49.754;20.158;2022-09-02T01:06:55;1.90;;;1.10;;
34064;SDS011;20339;49.754;20.158;2022-09-02T01:09:26;2.20;;;1.10;;
34064;SDS011;20339;49.754;20.158;2022-09-02T01:12:00;3.00;;;1.50;;
34064;SDS011;20339;49.754;20.158;2022-09-02T01:14:32;3.70;;;1.00;;
34064;SDS011;20339;49.754;20.158;2022-09-02T01:17:04;3.20;;;0.90;;
34064;SDS011;20339;49.754;20.158;2022-09-02T01:19:37;2.00;;;0.90;;
34064;SDS011;20339;49.754;20.158;2022-09-02T01:22:15;1.50;;;0.90;;
34064;SDS011;20339;49.754;20.158;2022-09-02T01:24:49;2.70;;;1.00;;
34064;SDS011;20339;49.754;20.158;2022-09-02T01:27:22;2.30;;;1.10;;
34064;SDS011;20339;49.754;20.158;2022-09-02T01:29:56;2.20;;;1.20;;
34064;SDS011;20339;49.754;20.158;2022-09-02T01:32:28;1.30;;;0.90;;
34064;SDS011;20339;49.754;20.158;2022-09-02T01:35:00;3.00;;;1.10;;
34064;SDS011;20339;49.754;20.158;2022-09-02T01:37:35;1.60;;;1.00;;
34064;SDS011;20339;49.754;20.158;2022-09-02T01:40:08;1.90;;;1.10;;
34064;SDS011;20339;49.754;20.158;2022-09-02T01:42:43;3.10;;;1.30;;
34064;SDS011;20339;49.754;20.158;2022-09-02T01:45:15;2.90;;;1.40;;
34064;SDS011;20339;49.754;20.158;2022-09-02T01:47:46;2.30;;;1.30;;
34064;SDS011;20339;49.754;20.158;2022-09-02T01:50:17;1.10;;;0.80;;
34064;SDS011;20339;49.754;20.158;2022-09-02T01:52:49;3.00;;;1.30;;
34064;SDS011;20339;49.754;20.158;2022-09-02T01:55:20;6.00;;;1.40;;
34064;SDS011;20339;49.754;20.158;2022-09-02T01:57:51;1.90;;;1.40;;
34064;SDS011;20339;49.754;20.158;2022-09-02T02:00:25;2.30;;;1.20;;
34064;SDS011;20339;49.754;20.158;2022-09-02T02:02:57;3.80;;;1.30;;
34064;SDS011;20339;49.754;20.158;2022-09-02T02:05:29;2.00;;;0.80;;
34064;SDS011;20339;49.754;20.158;2022-09-02T02:08:01;4.80;;;1.50;;
34064;SDS011;20339;49.754;20.158;2022-09-02T02:10:33;1.90;;;1.10;;
34064;SDS011;20339;49.754;20.158;2022-09-02T02:13:04;2.20;;;1.20;;
34064;SDS011;20339;49.754;20.158;2022-09-02T02:15:39;1.90;;;1.10;;
34064;SDS011;20339;49.754;20.158;2022-09-02T02:18:11;2.20;;;1.10;;
34064;SDS011;20339;49.754;20.158;2022-09-02T02:20:46;2.20;;;1.30;;
34064;SDS011;20339;49.754;20.158;2022-09-02T02:23:17;3.10;;;0.90;;
34064;SDS011;20339;49.754;20.158;2022-09-02T02:25:50;2.20;;;1.30;;
34064;SDS011;20339;49.754;20.158;2022-09-02T02:28:21;3.10;;;1.10;;
34064;SDS011;20339;49.754;20.158;2022-09-02T02:31:01;3.30;;;1.10;;
34064;SDS011;20339;49.754;20.158;2022-09-02T02:33:36;2.40;;;1.00;;
34064;SDS011;20339;49.754;20.158;2022-09-02T02:36:07;2.20;;;1.10;;
34064;SDS011;20339;49.754;20.158;2022-09-02T02:38:39;3.00;;;1.30;;
34064;SDS011;20339;49.754;20.158;2022-09-02T02:41:11;2.20;;;1.10;;
34064;SDS011;20339;49.754;20.158;2022-09-02T02:43:43;2.30;;;1.30;;
34064;SDS011;20339;49.754;20.158;2022-09-02T02:46:15;2.60;;;1.30;;
34064;SDS011;20339;49.754;20.158;2022-09-02T02:48:46;2.00;;;1.20;;
34064;SDS011;20339;49.754;20.158;2022-09-02T02:51:17;4.40;;;1.60;;
34064;SDS011;20339;49.754;20.158;2022-09-02T02:53:48;2.80;;;1.30;;
34064;SDS011;20339;49.754;20.158;2022-09-02T02:56:19;2.20;;;1.00;;
34064;SDS011;20339;49.754;20.158;2022-09-02T02:58:51;2.00;;;1.20;;
34064;SDS011;20339;49.754;20.158;2022-09-02T03:01:23;3.10;;;1.60;;
34064;SDS011;20339;49.754;20.158;2022-09-02T03:03:54;2.20;;;1.20;;
34064;SDS011;20339;49.754;20.158;2022-09-02T03:06:25;2.60;;;1.20;;
34064;SDS011;20339;49.754;20.158;2022-09-02T03:08:57;2.10;;;1.40;;
34064;SDS011;20339;49.754;20.158;2022-09-02T03:11:28;3.00;;;1.10;;
34064;SDS011;20339;49.754;20.158;2022-09-02T03:14:02;1.50;;;1.00;;
34064;SDS011;20339;49.754;20.158;2022-09-02T03:16:35;1.90;;;1.30;;
34064;SDS011;20339;49.754;20.158;2022-09-02T03:19:06;2.80;;;1.50;;
34064;SDS011;20339;49.754;20.158;2022-09-02T03:21:41;2.30;;;1.20;;
34064;SDS011;20339;49.754;20.158;2022-09-02T03:24:12;1.50;;;1.10;;
34064;SDS011;20339;49.754;20.158;2022-09-02T03:26:43;3.10;;;1.30;;
34064;SDS011;20339;49.754;20.158;2022-09-02T03:29:14;2.20;;;1.20;;
34064;SDS011;20339;49.754;20.158;2022-09-02T03:31:46;3.30;;;1.50;;
34064;SDS011;20339;49.754;20.158;2022-09-02T03:34:17;2.90;;;1.30;;
34064;SDS011;20339;49.754;20.158;2022-09-02T03:36:48;1.50;;;1.20;;
34064;SDS011;20339;49.754;20.158;2022-09-02T03:39:20;1.70;;;1.10;;
34064;SDS011;20339;49.754;20.158;2022-09-02T03:41:51;2.40;;;1.30;;
34064;SDS011;20339;49.754;20.158;2022-09-02T03:44:22;2.10;;;1.30;;
34064;SDS011;20339;49.754;20.158;2022-09-02T03:46:53;1.70;;;1.20;;
34064;SDS011;20339;49.754;20.158;2022-09-02T03:49:24;1.60;;;1.10;;
34064;SDS011;20339;49.754;20.158;2022-09-02T03:51:55;3.90;;;1.20;;
34064;SDS011;20339;49.754;20.158;2022-09-02T03:54:27;4.00;;;1.30;;
34064;SDS011;20339;49.754;20.158;2022-09-02T03:56:58;1.70;;;1.20;;
34064;SDS011;20339;49.754;20.158;2022-09-02T03:59:30;5.00;;;1.50;;
34064;SDS011;20339;49.754;20.158;2022-09-02T04:02:01;2.40;;;1.60;;
34064;SDS011;20339;49.754;20.158;2022-09-02T04:04:33;3.20;;;1.40;;
34064;SDS011;20339;49.754;20.158;2022-09-02T04:07:04;1.90;;;1.30;;
34064;SDS011;20339;49.754;20.158;2022-09-02T04:09:35;2.60;;;1.30;;
34064;SDS011;20339;49.754;20.158;2022-09-02T04:12:07;1.80;;;1.50;;
34064;SDS011;20339;49.754;20.158;2022-09-02T04:14:38;3.00;;;1.30;;
34064;SDS011;20339;49.754;20.158;2022-09-02T04:17:10;2.40;;;1.40;;
34064;SDS011;20339;49.754;20.158;2022-09-02T04:19:41;1.80;;;1.00;;
34064;SDS011;20339;49.754;20.158;2022-09-02T04:22:14;4.40;;;1.30;;
34064;SDS011;20339;49.754;20.158;2022-09-02T04:24:46;3.50;;;1.40;;
34064;SDS011;20339;49.754;20.158;2022-09-02T04:27:17;2.60;;;1.40;;
34064;SDS011;20339;49.754;20.158;2022-09-02T04:29:49;1.70;;;1.20;;
34064;SDS011;20339;49.754;20.158;2022-09-02T04:32:20;2.00;;;1.20;;
34064;SDS011;20339;49.754;20.158;2022-09-02T04:34:54;2.80;;;1.20;;
34064;SDS011;20339;49.754;20.158;2022-09-02T04:37:26;1.90;;;1.30;;
34064;SDS011;20339;49.754;20.158;2022-09-02T04:39:57;2.60;;;1.30;;
34064;SDS011;20339;49.754;20.158;2022-09-02T04:42:32;2.70;;;1.30;;
34064;SDS011;20339;49.754;20.158;2022-09-02T04:45:06;2.70;;;1.40;;
34064;SDS011;20339;49.754;20.158;2022-09-02T04:47:38;2.30;;;1.30;;
34064;SDS011;20339;49.754;20.158;2022-09-02T04:50:09;2.10;;;1.20;;
34064;SDS011;20339;49.754;20.158;2022-09-02T04:52:41;3.00;;;1.20;;
34064;SDS011;20339;49.754;20.158;2022-09-02T04:55:12;2.10;;;1.30;;
34064;SDS011;20339;49.754;20.158;2022-09-02T04:57:43;2.60;;;1.30;;
34064;SDS011;20339;49.754;20.158;2022-09-02T05:00:15;3.20;;;1.30;;
34064;SDS011;20339;49.754;20.158;2022-09-02T05:02:47;2.40;;;1.50;;
34064;SDS011;20339;49.754;20.158;2022-09-02T05:05:18;1.70;;;1.30;;
34064;SDS011;20339;49.754;20.158;2022-09-02T05:07:49;2.70;;;1.30;;
34064;SDS011;20339;49.754;20.158;2022-09-02T05:10:23;2.90;;;1.50;;
34064;SDS011;20339;49.754;20.158;2022-09-02T05:12:55;2.80;;;1.40;;
34064;SDS011;20339;49.754;20.158;2022-09-02T05:15:27;2.90;;;1.20;;
34064;SDS011;20339;49.754;20.158;2022-09-02T05:17:58;3.40;;;1.70;;
34064;SDS011;20339;49.754;20.158;2022-09-02T05:20:29;3.20;;;1.30;;
34064;SDS011;20339;49.754;20.158;2022-09-02T05:23:01;3.50;;;1.50;;
34064;SDS011;20339;49.754;20.158;2022-09-02T05:25:32;2.30;;;1.40;;
34064;SDS011;20339;49.754;20.158;2022-09-02T05:28:04;2.30;;;1.60;;
34064;SDS011;20339;49.754;20.158;2022-09-02T05:30:37;2.30;;;1.50;;
34064;SDS011;20339;49.754;20.158;2022-09-02T05:33:10;3.20;;;1.70;;
34064;SDS011;20339;49.754;20.158;2022-09-02T05:35:44;2.80;;;1.40;;
34064;SDS011;20339;49.754;20.158;2022-09-02T05:38:15;3.40;;;1.50;;
34064;SDS011;20339;49.754;20.158;2022-09-02T05:40:47;2.70;;;1.50;;
34064;SDS011;20339;49.754;20.158;2022-09-02T05:43:18;4.70;;;1.60;;
34064;SDS011;20339;49.754;20.158;2022-09-02T05:45:50;2.80;;;1.70;;
34064;SDS011;20339;49.754;20.158;2022-09-02T05:48:23;3.10;;;1.90;;
34064;SDS011;20339;49.754;20.158;2022-09-02T05:51:11;3.50;;;1.70;;
34064;SDS011;20339;49.754;20.158;2022-09-02T05:53:43;4.50;;;2.30;;
34064;SDS011;20339;49.754;20.158;2022-09-02T05:56:14;3.50;;;1.80;;
34064;SDS011;20339;49.754;20.158;2022-09-02T05:58:45;4.10;;;2.10;;
34064;SDS011;20339;49.754;20.158;2022-09-02T06:01:17;3.20;;;1.70;;
34064;SDS011;20339;49.754;20.158;2022-09-02T06:03:49;3.00;;;1.90;;
34064;SDS011;20339;49.754;20.158;2022-09-02T06:06:20;5.00;;;2.40;;
34064;SDS011;20339;49.754;20.158;2022-09-02T06:08:51;4.50;;;1.70;;
34064;SDS011;20339;49.754;20.158;2022-09-02T06:11:22;4.60;;;2.30;;
34064;SDS011;20339;49.754;20.158;2022-09-02T06:13:53;2.50;;;1.80;;
34064;SDS011;20339;49.754;20.158;2022-09-02T06:16:24;4.60;;;2.40;;
34064;SDS011;20339;49.754;20.158;2022-09-02T06:18:55;3.60;;;2.00;;
34064;SDS011;20339;49.754;20.158;2022-09-02T06:21:27;3.60;;;2.10;;
34064;SDS011;20339;49.754;20.158;2022-09-02T07:44:58;1.90;;;1.60;;
34064;SDS011;20339;49.754;20.158;2022-09-02T07:47:30;2.10;;;1.70;;
34064;SDS011;20339;49.754;20.158;2022-09-02T07:50:01;2.50;;;1.70;;
34064;SDS011;20339;49.754;20.158;2022-09-02T07:52:33;2.70;;;1.50;;
34064;SDS011;20339;49.754;20.158;2022-09-02T07:55:05;2.40;;;1.50;;
34064;SDS011;20339;49.754;20.158;2022-09-02T07:57:37;3.90;;;1.60;;
34064;SDS011;20339;49.754;20.158;2022-09-02T08:00:09;3.30;;;1.60;;
34064;SDS011;20339;49.754;20.158;2022-09-02T08:02:43;2.40;;;1.60;;
34064;SDS011;20339;49.754;20.158;2022-09-02T08:05:14;3.10;;;1.90;;
34064;SDS011;20339;49.754;20.158;2022-09-02T08:07:46;2.90;;;1.90;;
34064;SDS011;20339;49.754;20.158;2022-09-02T08:10:17;4.00;;;1.80;;
34064;SDS011;20339;49.754;20.158;2022-09-02T08:12:51;3.20;;;1.60;;
34064;SDS011;20339;49.754;20.158;2022-09-02T08:15:27;2.90;;;1.60;;
34064;SDS011;20339;49.754;20.158;2022-09-02T08:17:58;2.30;;;1.70;;
34064;SDS011;20339;49.754;20.158;2022-09-02T08:20:30;2.80;;;1.90;;
34064;SDS011;20339;49.754;20.158;2022-09-02T08:23:03;1.90;;;1.80;;
34064;SDS011;20339;49.754;20.158;2022-09-02T08:25:35;2.30;;;1.90;;
34064;SDS011;20339;49.754;20.158;2022-09-02T08:28:07;4.20;;;1.70;;
34064;SDS011;20339;49.754;20.158;2022-09-02T08:30:39;4.00;;;2.00;;
34064;SDS011;20339;49.754;20.158;2022-09-02T08:33:15;2.40;;;1.80;;
34064;SDS011;20339;49.754;20.158;2022-09-02T08:35:48;3.00;;;1.90;;
34064;SDS011;20339;49.754;20.158;2022-09-02T08:38:19;2.60;;;1.70;;
34064;SDS011;20339;49.754;20.158;2022-09-02T08:40:50;5.00;;;1.80;;
34064;SDS011;20339;49.754;20.158;2022-09-02T08:43:26;2.70;;;1.70;;
34064;SDS011;20339;49.754;20.158;2022-09-02T08:46:07;4.40;;;1.80;;
34064;SDS011;20339;49.754;20.158;2022-09-02T08:48:43;3.50;;;2.00;;
34064;SDS011;20339;49.754;20.158;2022-09-02T08:51:20;2.60;;;1.60;;
34064;SDS011;20339;49.754;20.158;2022-09-02T08:53:59;4.50;;;1.90;;
34064;SDS011;20339;49.754;20.158;2022-09-02T08:56:34;3.60;;;2.00;;
34064;SDS011;20339;49.754;20.158;2022-09-02T08:59:06;2.40;;;1.60;;
34064;SDS011;20339;49.754;20.158;2022-09-02T09:01:42;4.30;;;2.10;;
34064;SDS011;20339;49.754;20.158;2022-09-02T09:04:20;3.60;;;1.30;;
34064;SDS011;20339;49.754;20.158;2022-09-02T09:10:04;2.50;;;1.30;;
34064;SDS011;20339;49.754;20.158;2022-09-02T09:12:49;2.40;;;1.00;;
34064;SDS011;20339;49.754;20.158;2022-09-02T09:15:31;2.60;;;1.40;;
34064;SDS011;20339;49.754;20.158;2022-09-02T09:18:08;4.90;;;1.20;;
34064;SDS011;20339;49.754;20.158;2022-09-02T09:20:43;3.20;;;1.40;;
34064;SDS011;20339;49.754;20.158;2022-09-02T09:23:26;3.10;;;1.20;;
34064;SDS011;20339;49.754;20.158;2022-09-02T09:26:04;2.50;;;0.90;;
34064;SDS011;20339;49.754;20.158;2022-09-02T09:28:38;2.10;;;1.20;;
34064;SDS011;20339;49.754;20.158;2022-09-02T09:31:12;1.60;;;0.80;;
34064;SDS011;20339;49.754;20.158;2022-09-02T09:33:55;2.70;;;1.20;;
34064;SDS011;20339;49.754;20.158;2022-09-02T09:36:50;2.40;;;1.10;;
34064;SDS011;20339;49.754;20.158;2022-09-02T09:39:24;2.70;;;0.90;;
34064;SDS011;20339;49.754;20.158;2022-09-02T09:41:57;3.40;;;1.00;;
34064;SDS011;20339;49.754;20.158;2022-09-02T09:44:40;2.80;;;1.00;;
34064;SDS011;20339;49.754;20.158;2022-09-02T09:47:17;2.00;;;1.00;;
34064;SDS011;20339;49.754;20.158;2022-09-02T09:49:50;1.10;;;1.00;;
34064;SDS011;20339;49.754;20.158;2022-09-02T09:52:37;1.70;;;0.70;;
34064;SDS011;20339;49.754;20.158;2022-09-02T09:55:13;2.00;;;0.90;;
34064;SDS011;20339;49.754;20.158;2022-09-02T09:57:47;1.60;;;0.90;;
34064;SDS011;20339;49.754;20.158;2022-09-02T10:00:21;1.70;;;0.90;;
34064;SDS011;20339;49.754;20.158;2022-09-02T10:02:59;1.20;;;1.00;;
34064;SDS011;20339;49.754;20.158;2022-09-02T10:05:33;4.10;;;0.90;;
34064;SDS011;20339;49.754;20.158;2022-09-02T10:08:17;2.10;;;1.10;;
34064;SDS011;20339;49.754;20.158;2022-09-02T10:11:00;2.50;;;0.90;;
34064;SDS011;20339;49.754;20.158;2022-09-02T10:13:35;2.10;;;1.10;;
34064;SDS011;20339;49.754;20.158;2022-09-02T10:16:11;1.90;;;1.30;;
34064;SDS011;20339;49.754;20.158;2022-09-02T10:18:52;2.50;;;1.40;;
34064;SDS011;20339;49.754;20.158;2022-09-02T10:21:31;4.20;;;0.90;;
34064;SDS011;20339;49.754;20.158;2022-09-02T10:24:13;1.80;;;1.10;;
34064;SDS011;20339;49.754;20.158;2022-09-02T10:26:58;2.90;;;1.60;;
34064;SDS011;20339;49.754;20.158;2022-09-02T10:29:48;3.20;;;1.10;;
34064;SDS011;20339;49.754;20.158;2022-09-02T10:32:30;2.50;;;1.20;;
34064;SDS011;20339;49.754;20.158;2022-09-02T10:35:15;1.60;;;1.00;;
34064;SDS011;20339;49.754;20.158;2022-09-02T10:37:55;3.40;;;1.70;;
34064;SDS011;20339;49.754;20.158;2022-09-02T10:40:35;3.60;;;1.30;;
34064;SDS011;20339;49.754;20.158;2022-09-02T10:43:20;2.50;;;1.30;;
34064;SDS011;20339;49.754;20.158;2022-09-02T10:46:01;3.60;;;1.70;;
34064;SDS011;20339;49.754;20.158;2022-09-02T10:48:40;3.10;;;1.50;;
34064;SDS011;20339;49.754;20.158;2022-09-02T10:51:22;2.70;;;1.40;;
34064;SDS011;20339;49.754;20.158;2022-09-02T10:54:07;3.00;;;1.30;;
34064;SDS011;20339;49.754;20.158;2022-09-02T10:56:48;4.40;;;1.50;;
34064;SDS011;20339;49.754;20.158;2022-09-02T10:59:25;3.80;;;1.50;;
34064;SDS011;20339;49.754;20.158;2022-09-02T11:02:04;2.00;;;1.20;;
34064;SDS011;20339;49.754;20.158;2022-09-02T11:04:40;2.20;;;1.30;;
34064;SDS011;20339;49.754;20.158;2022-09-02T11:07:17;1.60;;;1.00;;
34064;SDS011;20339;49.754;20.158;2022-09-02T11:09:53;3.10;;;1.30;;
34064;SDS011;20339;49.754;20.158;2022-09-02T11:12:29;3.60;;;1.10;;
34064;SDS011;20339;49.754;20.158;2022-09-02T11:15:08;1.90;;;1.20;;
34064;SDS011;20339;49.754;20.158;2022-09-02T11:17:46;2.50;;;1.20;;
34064;SDS011;20339;49.754;20.158;2022-09-02T11:20:25;2.70;;;1.20;;
34064;SDS011;20339;49.754;20.158;2022-09-02T11:23:02;2.00;;;1.00;;
34064;SDS011;20339;49.754;20.158;2022-09-02T11:25:45;2.10;;;1.30;;
34064;SDS011;20339;49.754;20.158;2022-09-02T11:28:25;3.20;;;1.10;;
34064;SDS011;20339;49.754;20.158;2022-09-02T11:31:02;3.10;;;1.50;;
34064;SDS011;20339;49.754;20.158;2022-09-02T11:33:42;4.20;;;1.50;;
34064;SDS011;20339;49.754;20.158;2022-09-02T11:36:21;5.20;;;1.20;;
34064;SDS011;20339;49.754;20.158;2022-09-02T11:38:53;2.80;;;1.10;;
34064;SDS011;20339;49.754;20.158;2022-09-02T11:41:33;1.60;;;1.00;;
34064;SDS011;20339;49.754;20.158;2022-09-02T11:44:24;3.00;;;1.40;;
34064;SDS011;20339;49.754;20.158;2022-09-02T11:47:12;1.80;;;1.50;;
34064;SDS011;20339;49.754;20.158;2022-09-02T11:50:11;3.20;;;1.50;;
34064;SDS011;20339;49.754;20.158;2022-09-02T11:53:04;2.20;;;1.40;;
34064;SDS011;20339;49.754;20.158;2022-09-02T11:55:47;4.20;;;1.30;;
34064;SDS011;20339;49.754;20.158;2022-09-02T11:58:33;2.30;;;1.80;;
34064;SDS011;20339;49.754;20.158;2022-09-02T12:01:20;2.20;;;1.10;;
34064;SDS011;20339;49.754;20.158;2022-09-02T12:03:57;2.80;;;1.40;;
34064;SDS011;20339;49.754;20.158;2022-09-02T12:06:31;2.30;;;1.60;;
34064;SDS011;20339;49.754;20.158;2022-09-02T12:09:07;3.60;;;1.50;;
34064;SDS011;20339;49.754;20.158;2022-09-02T12:11:43;1.80;;;1.40;;
34064;SDS011;20339;49.754;20.158;2022-09-02T12:18:04;2.60;;;1.20;;
34064;SDS011;20339;49.754;20.158;2022-09-02T12:29:39;2.00;;;1.10;;
34064;SDS011;20339;49.754;20.158;2022-09-02T12:32:12;3.00;;;1.40;;
34064;SDS011;20339;49.754;20.158;2022-09-02T12:35:33;2.40;;;1.30;;
34064;SDS011;20339;49.754;20.158;2022-09-02T12:38:31;3.20;;;1.20;;
34064;SDS011;20339;49.754;20.158;2022-09-02T12:41:13;1.90;;;0.90;;
34064;SDS011;20339;49.754;20.158;2022-09-02T12:43:54;2.40;;;1.70;;
34064;SDS011;20339;49.754;20.158;2022-09-02T12:46:52;3.30;;;1.40;;
34064;SDS011;20339;49.754;20.158;2022-09-02T12:49:37;3.10;;;1.30;;
34064;SDS011;20339;49.754;20.158;2022-09-02T12:55:19;2.80;;;1.20;;
34064;SDS011;20339;49.754;20.158;2022-09-02T12:57:55;1.20;;;0.90;;
34064;SDS011;20339;49.754;20.158;2022-09-02T13:00:38;1.80;;;0.90;;
34064;SDS011;20339;49.754;20.158;2022-09-02T13:03:31;2.80;;;1.00;;
34064;SDS011;20339;49.754;20.158;2022-09-02T13:06:16;2.10;;;1.10;;
34064;SDS011;20339;49.754;20.158;2022-09-02T13:12:14;3.80;;;1.70;;
34064;SDS011;20339;49.754;20.158;2022-09-02T13:15:12;2.30;;;1.20;;
34064;SDS011;20339;49.754;20.158;2022-09-02T13:21:07;1.10;;;0.70;;
34064;SDS011;20339;49.754;20.158;2022-09-02T13:24:04;3.10;;;1.10;;
34064;SDS011;20339;49.754;20.158;2022-09-02T13:26:54;2.50;;;1.30;;
34064;SDS011;20339;49.754;20.158;2022-09-02T13:32:34;3.10;;;1.20;;
34064;SDS011;20339;49.754;20.158;2022-09-02T13:35:07;4.20;;;0.80;;
34064;SDS011;20339;49.754;20.158;2022-09-02T13:37:53;2.50;;;0.70;;
34064;SDS011;20339;49.754;20.158;2022-09-02T13:40:28;1.30;;;0.90;;
34064;SDS011;20339;49.754;20.158;2022-09-02T13:43:02;1.40;;;1.00;;
34064;SDS011;20339;49.754;20.158;2022-09-02T13:45:45;1.40;;;1.10;;
34064;SDS011;20339;49.754;20.158;2022-09-02T13:48:19;2.80;;;1.10;;
34064;SDS011;20339;49.754;20.158;2022-09-02T13:50:53;1.20;;;0.90;;
34064;SDS011;20339;49.754;20.158;2022-09-02T13:53:29;1.00;;;0.70;;
34064;SDS011;20339;49.754;20.158;2022-09-02T13:56:04;1.30;;;1.00;;
34064;SDS011;20339;49.754;20.158;2022-09-02T13:58:42;2.90;;;1.20;;
34064;SDS011;20339;49.754;20.158;2022-09-02T14:01:21;3.60;;;1.60;;
34064;SDS011;20339;49.754;20.158;2022-09-02T14:03:56;1.70;;;0.90;;
34064;SDS011;20339;49.754;20.158;2022-09-02T14:06:32;2.80;;;1.40;;
34064;SDS011;20339;49.754;20.158;2022-09-02T14:09:07;1.70;;;1.00;;
34064;SDS011;20339;49.754;20.158;2022-09-02T14:11:48;3.30;;;1.20;;
34064;SDS011;20339;49.754;20.158;2022-09-02T14:14:22;2.80;;;0.90;;
34064;SDS011;20339;49.754;20.158;2022-09-02T14:19:54;3.70;;;1.20;;
34064;SDS011;20339;49.754;20.158;2022-09-02T14:22:50;4.40;;;1.40;;
34064;SDS011;20339;49.754;20.158;2022-09-02T14:25:23;2.90;;;1.20;;
34064;SDS011;20339;49.754;20.158;2022-09-02T14:27:58;3.90;;;1.10;;
34064;SDS011;20339;49.754;20.158;2022-09-02T14:30:33;3.10;;;1.10;;
34064;SDS011;20339;49.754;20.158;2022-09-02T14:33:18;2.50;;;1.50;;
34064;SDS011;20339;49.754;20.158;2022-09-02T14:36:00;2.10;;;1.10;;
34064;SDS011;20339;49.754;20.158;2022-09-02T14:38:34;3.10;;;1.40;;
34064;SDS011;20339;49.754;20.158;2022-09-02T14:41:23;2.00;;;1.30;;
34064;SDS011;20339;49.754;20.158;2022-09-02T14:43:57;4.90;;;1.40;;
34064;SDS011;20339;49.754;20.158;2022-09-02T14:46:42;2.20;;;1.40;;
34064;SDS011;20339;49.754;20.158;2022-09-02T14:49:18;3.00;;;1.90;;
34064;SDS011;20339;49.754;20.158;2022-09-02T14:51:53;2.30;;;1.30;;
34064;SDS011;20339;49.754;20.158;2022-09-02T14:54:35;3.20;;;1.40;;
34064;SDS011;20339;49.754;20.158;2022-09-02T14:57:19;4.40;;;1.40;;
34064;SDS011;20339;49.754;20.158;2022-09-02T14:59:55;2.80;;;1.50;;
34064;SDS011;20339;49.754;20.158;2022-09-02T15:02:31;3.10;;;1.30;;
34064;SDS011;20339;49.754;20.158;2022-09-02T15:05:06;1.50;;;1.20;;
34064;SDS011;20339;49.754;20.158;2022-09-02T15:16:17;2.90;;;1.40;;
34064;SDS011;20339;49.754;20.158;2022-09-02T15:18:48;3.00;;;1.30;;
34064;SDS011;20339;49.754;20.158;2022-09-02T15:21:20;3.90;;;1.60;;
34064;SDS011;20339;49.754;20.158;2022-09-02T15:23:51;5.20;;;1.60;;
34064;SDS011;20339;49.754;20.158;2022-09-02T15:26:22;3.00;;;1.30;;
34064;SDS011;20339;49.754;20.158;2022-09-02T15:28:53;2.80;;;1.20;;
34064;SDS011;20339;49.754;20.158;2022-09-02T15:31:25;4.20;;;1.70;;
34064;SDS011;20339;49.754;20.158;2022-09-02T15:33:56;3.10;;;1.60;;
34064;SDS011;20339;49.754;20.158;2022-09-02T15:36:29;6.00;;;2.30;;
34064;SDS011;20339;49.754;20.158;2022-09-02T15:39:01;4.40;;;2.90;;
34064;SDS011;20339;49.754;20.158;2022-09-02T15:41:33;7.60;;;3.70;;
34064;SDS011;20339;49.754;20.158;2022-09-02T15:44:05;5.80;;;3.50;;
34064;SDS011;20339;49.754;20.158;2022-09-02T15:46:40;7.40;;;3.60;;
34064;SDS011;20339;49.754;20.158;2022-09-02T15:49:14;8.00;;;4.30;;
34064;SDS011;20339;49.754;20.158;2022-09-02T15:51:46;8.50;;;4.60;;
34064;SDS011;20339;49.754;20.158;2022-09-02T15:54:20;8.30;;;4.00;;
34064;SDS011;20339;49.754;20.158;2022-09-02T15:56:54;9.60;;;4.20;;
34064;SDS011;20339;49.754;20.158;2022-09-02T15:59:26;7.30;;;3.80;;
34064;SDS011;20339;49.754;20.158;2022-09-02T16:01:58;8.10;;;3.40;;
34064;SDS011;20339;49.754;20.158;2022-09-02T16:04:30;6.20;;;2.80;;
34064;SDS011;20339;49.754;20.158;2022-09-02T16:07:02;5.40;;;2.90;;
34064;SDS011;20339;49.754;20.158;2022-09-02T16:09:33;5.90;;;3.40;;
34064;SDS011;20339;49.754;20.158;2022-09-02T16:12:05;6.50;;;3.00;;
34064;SDS011;20339;49.754;20.158;2022-09-02T16:14:38;4.30;;;2.90;;
34064;SDS011;20339;49.754;20.158;2022-09-02T16:17:10;5.80;;;3.00;;
34064;SDS011;20339;49.754;20.158;2022-09-02T16:19:43;6.30;;;3.00;;
34064;SDS011;20339;49.754;20.158;2022-09-02T16:22:15;5.50;;;2.90;;
34064;SDS011;20339;49.754;20.158;2022-09-02T16:24:48;9.10;;;3.80;;
34064;SDS011;20339;49.754;20.158;2022-09-02T16:27:21;5.20;;;3.10;;
34064;SDS011;20339;49.754;20.158;2022-09-02T16:30:08;4.20;;;2.50;;
34064;SDS011;20339;49.754;20.158;2022-09-02T16:32:42;6.30;;;3.20;;
34064;SDS011;20339;49.754;20.158;2022-09-02T16:35:14;8.40;;;3.50;;
34064;SDS011;20339;49.754;20.158;2022-09-02T16:37:46;6.60;;;3.60;;
34064;SDS011;20339;49.754;20.158;2022-09-02T16:40:19;5.50;;;3.20;;
34064;SDS011;20339;49.754;20.158;2022-09-02T16:42:50;7.10;;;3.90;;
34064;SDS011;20339;49.754;20.158;2022-09-02T16:45:21;7.30;;;3.60;;
34064;SDS011;20339;49.754;20.158;2022-09-02T16:47:56;6.70;;;3.40;;
34064;SDS011;20339;49.754;20.158;2022-09-02T16:50:31;5.40;;;3.50;;
34064;SDS011;20339;49.754;20.158;2022-09-02T16:53:05;8.30;;;3.40;;
34064;SDS011;20339;49.754;20.158;2022-09-02T16:55:40;6.00;;;3.50;;
34064;SDS011;20339;49.754;20.158;2022-09-02T16:58:16;6.90;;;3.20;;
34064;SDS011;20339;49.754;20.158;2022-09-02T17:00:47;5.90;;;3.10;;
34064;SDS011;20339;49.754;20.158;2022-09-02T17:03:19;4.70;;;3.00;;
34064;SDS011;20339;49.754;20.158;2022-09-02T17:05:52;6.40;;;3.50;;
34064;SDS011;20339;49.754;20.158;2022-09-02T17:08:24;8.40;;;3.40;;
34064;SDS011;20339;49.754;20.158;2022-09-02T17:11:12;8.00;;;4.40;;
34064;SDS011;20339;49.754;20.158;2022-09-02T17:13:49;10.00;;;5.30;;
34064;SDS011;20339;49.754;20.158;2022-09-02T17:16:23;10.20;;;5.90;;
34064;SDS011;20339;49.754;20.158;2022-09-02T17:18:57;9.20;;;5.30;;
34064;SDS011;20339;49.754;20.158;2022-09-02T17:21:29;9.20;;;4.90;;